sensor_id;sensor_type;location;lat;lon;timestamp;P1;durP1;ratioP1;P2;durP2;ratioP2
45328;SDS011;31063;48.356;10.896;2022-09-12T00:00:44;12.40;;;11.00;;
45328;SDS011;31063;48.356;10.896;2022-09-12T00:03:09;13.73;;;11.00;;
45328;SDS011;31063;48.356;10.896;2022-09-12T00:05:42;12.90;;;9.77;;
45328;SDS011;31063;48.356;10.896;2022-09-12T00:08:11;10.75;;;9.60;;
45328;SDS011;31063;48.356;10.896;2022-09-12T00:10:41;13.02;;;10.15;;
45328;SDS011;31063;48.356;10.896;2022-09-12T00:13:08;12.10;;;9.75;;
45328;SDS011;31063;48.356;10.896;2022-09-12T00:15:38;11.63;;;10.43;;
45328;SDS011;31063;48.356;10.896;2022-09-12T00:18:05;10.35;;;9.00;;
45328;SDS011;31063;48.356;10.896;2022-09-12T00:20:33;9.70;;;8.70;;
45328;SDS011;31063;48.356;10.896;2022-09-12T00:22:58;9.83;;;8.03;;
45328;SDS011;31063;48.356;10.896;2022-09-12T00:25:24;13.70;;;10.35;;
45328;SDS011;31063;48.356;10.896;2022-09-12T00:27:50;11.65;;;10.00;;
45328;SDS011;31063;48.356;10.896;2022-09-12T00:30:16;10.47;;;9.43;;
45328;SDS011;31063;48.356;10.896;2022-09-12T00:32:42;12.17;;;10.87;;
45328;SDS011;31063;48.356;10.896;2022-09-12T00:35:07;11.40;;;10.20;;
45328;SDS011;31063;48.356;10.896;2022-09-12T00:37:33;12.43;;;8.70;;
45328;SDS011;31063;48.356;10.896;2022-09-12T00:39:59;10.05;;;9.05;;
45328;SDS011;31063;48.356;10.896;2022-09-12T00:42:24;12.27;;;10.83;;
45328;SDS011;31063;48.356;10.896;2022-09-12T00:44:51;13.10;;;10.03;;
45328;SDS011;31063;48.356;10.896;2022-09-12T00:47:18;10.77;;;9.45;;
45328;SDS011;31063;48.356;10.896;2022-09-12T00:55:16;10.40;;;8.68;;
45328;SDS011;31063;48.356;10.896;2022-09-12T01:00:24;10.35;;;9.35;;
45328;SDS011;31063;48.356;10.896;2022-09-12T01:02:58;11.25;;;8.82;;
45328;SDS011;31063;48.356;10.896;2022-09-12T01:05:30;9.93;;;8.93;;
45328;SDS011;31063;48.356;10.896;2022-09-12T01:07:59;9.45;;;8.48;;
45328;SDS011;31063;48.356;10.896;2022-09-12T01:10:26;8.98;;;7.70;;
45328;SDS011;31063;48.356;10.896;2022-09-12T01:12:52;8.33;;;7.40;;
45328;SDS011;31063;48.356;10.896;2022-09-12T01:15:18;9.47;;;7.03;;
45328;SDS011;31063;48.356;10.896;2022-09-12T01:28:37;6.68;;;5.57;;
45328;SDS011;31063;48.356;10.896;2022-09-12T01:31:30;7.65;;;5.68;;
45328;SDS011;31063;48.356;10.896;2022-09-12T01:42:21;6.50;;;5.90;;
45328;SDS011;31063;48.356;10.896;2022-09-12T01:47:45;6.93;;;6.23;;
45328;SDS011;31063;48.356;10.896;2022-09-12T01:50:23;8.65;;;6.13;;
45328;SDS011;31063;48.356;10.896;2022-09-12T01:52:56;7.45;;;6.75;;
45328;SDS011;31063;48.356;10.896;2022-09-12T01:55:29;6.00;;;5.43;;
45328;SDS011;31063;48.356;10.896;2022-09-12T01:58:06;6.70;;;4.47;;
45328;SDS011;31063;48.356;10.896;2022-09-12T02:00:46;5.82;;;5.32;;
45328;SDS011;31063;48.356;10.896;2022-09-12T02:03:25;5.90;;;4.47;;
45328;SDS011;31063;48.356;10.896;2022-09-12T02:08:46;5.25;;;4.75;;
45328;SDS011;31063;48.356;10.896;2022-09-12T02:11:17;4.88;;;4.35;;
45328;SDS011;31063;48.356;10.896;2022-09-12T02:16:24;5.07;;;4.57;;
45328;SDS011;31063;48.356;10.896;2022-09-12T02:19:14;6.60;;;4.80;;
45328;SDS011;31063;48.356;10.896;2022-09-12T02:21:46;4.90;;;4.20;;
45328;SDS011;31063;48.356;10.896;2022-09-12T02:24:16;6.25;;;5.65;;
45328;SDS011;31063;48.356;10.896;2022-09-12T02:26:45;6.80;;;6.20;;
45328;SDS011;31063;48.356;10.896;2022-09-12T02:29:13;6.28;;;4.63;;
45328;SDS011;31063;48.356;10.896;2022-09-12T02:31:40;6.75;;;5.53;;
45328;SDS011;31063;48.356;10.896;2022-09-12T02:34:21;5.72;;;5.22;;
45328;SDS011;31063;48.356;10.896;2022-09-12T02:39:31;5.70;;;5.05;;
45328;SDS011;31063;48.356;10.896;2022-09-12T02:41:57;4.95;;;4.55;;
45328;SDS011;31063;48.356;10.896;2022-09-12T02:44:26;5.93;;;4.78;;
45328;SDS011;31063;48.356;10.896;2022-09-12T02:46:58;5.93;;;4.78;;
45328;SDS011;31063;48.356;10.896;2022-09-12T02:49:30;5.60;;;4.95;;
45328;SDS011;31063;48.356;10.896;2022-09-12T02:51:55;7.07;;;5.13;;
45328;SDS011;31063;48.356;10.896;2022-09-12T02:54:21;5.72;;;4.68;;
45328;SDS011;31063;48.356;10.896;2022-09-12T02:56:48;5.32;;;4.72;;
45328;SDS011;31063;48.356;10.896;2022-09-12T02:59:15;6.27;;;5.63;;
45328;SDS011;31063;48.356;10.896;2022-09-12T03:02:02;5.25;;;4.75;;
45328;SDS011;31063;48.356;10.896;2022-09-12T03:07:11;5.57;;;5.07;;
45328;SDS011;31063;48.356;10.896;2022-09-12T03:10:07;5.72;;;5.00;;
45328;SDS011;31063;48.356;10.896;2022-09-12T03:18:09;4.93;;;4.47;;
45328;SDS011;31063;48.356;10.896;2022-09-12T03:24:19;5.22;;;4.57;;
45328;SDS011;31063;48.356;10.896;2022-09-12T03:29:10;4.55;;;4.10;;
45328;SDS011;31063;48.356;10.896;2022-09-12T03:31:37;4.97;;;3.90;;
45328;SDS011;31063;48.356;10.896;2022-09-12T03:34:16;5.38;;;4.88;;
45328;SDS011;31063;48.356;10.896;2022-09-12T03:39:08;4.93;;;4.00;;
45328;SDS011;31063;48.356;10.896;2022-09-12T03:41:33;5.27;;;3.83;;
45328;SDS011;31063;48.356;10.896;2022-09-12T03:43:59;4.87;;;3.80;;
45328;SDS011;31063;48.356;10.896;2022-09-12T03:46:25;6.23;;;4.00;;
45328;SDS011;31063;48.356;10.896;2022-09-12T03:48:50;5.57;;;4.77;;
45328;SDS011;31063;48.356;10.896;2022-09-12T03:51:16;5.60;;;4.53;;
45328;SDS011;31063;48.356;10.896;2022-09-12T03:53:41;4.90;;;4.40;;
45328;SDS011;31063;48.356;10.896;2022-09-12T03:56:08;4.50;;;4.10;;
45328;SDS011;31063;48.356;10.896;2022-09-12T03:58:35;7.03;;;3.83;;
45328;SDS011;31063;48.356;10.896;2022-09-12T04:01:08;4.35;;;3.90;;
45328;SDS011;31063;48.356;10.896;2022-09-12T04:03:37;5.22;;;4.07;;
45328;SDS011;31063;48.356;10.896;2022-09-12T04:06:06;5.43;;;4.53;;
45328;SDS011;31063;48.356;10.896;2022-09-12T04:08:36;4.55;;;4.10;;
45328;SDS011;31063;48.356;10.896;2022-09-12T04:11:12;4.00;;;3.67;;
45328;SDS011;31063;48.356;10.896;2022-09-12T04:13:39;4.97;;;3.72;;
45328;SDS011;31063;48.356;10.896;2022-09-12T04:16:05;4.97;;;4.13;;
45328;SDS011;31063;48.356;10.896;2022-09-12T04:18:32;5.07;;;4.10;;
45328;SDS011;31063;48.356;10.896;2022-09-12T04:21:02;5.55;;;3.88;;
45328;SDS011;31063;48.356;10.896;2022-09-12T04:23:32;4.82;;;3.97;;
45328;SDS011;31063;48.356;10.896;2022-09-12T04:25:59;4.60;;;4.20;;
45328;SDS011;31063;48.356;10.896;2022-09-12T04:28:26;5.75;;;4.38;;
45328;SDS011;31063;48.356;10.896;2022-09-12T04:30:53;9.18;;;4.68;;
45328;SDS011;31063;48.356;10.896;2022-09-12T04:33:19;5.03;;;4.10;;
45328;SDS011;31063;48.356;10.896;2022-09-12T04:35:45;7.05;;;4.22;;
45328;SDS011;31063;48.356;10.896;2022-09-12T04:38:12;5.63;;;3.78;;
45328;SDS011;31063;48.356;10.896;2022-09-12T04:40:37;4.20;;;3.72;;
45328;SDS011;31063;48.356;10.896;2022-09-12T04:43:03;5.32;;;4.18;;
45328;SDS011;31063;48.356;10.896;2022-09-12T04:45:30;7.60;;;3.92;;
45328;SDS011;31063;48.356;10.896;2022-09-12T04:47:56;5.53;;;3.50;;
45328;SDS011;31063;48.356;10.896;2022-09-12T04:50:22;3.60;;;3.30;;
45328;SDS011;31063;48.356;10.896;2022-09-12T04:52:49;4.90;;;3.50;;
45328;SDS011;31063;48.356;10.896;2022-09-12T04:55:15;4.43;;;4.03;;
45328;SDS011;31063;48.356;10.896;2022-09-12T04:57:41;5.40;;;3.37;;
45328;SDS011;31063;48.356;10.896;2022-09-12T05:00:07;4.55;;;3.60;;
45328;SDS011;31063;48.356;10.896;2022-09-12T05:02:34;4.22;;;3.83;;
45328;SDS011;31063;48.356;10.896;2022-09-12T05:05:00;4.93;;;3.70;;
45328;SDS011;31063;48.356;10.896;2022-09-12T05:07:25;6.77;;;4.20;;
45328;SDS011;31063;48.356;10.896;2022-09-12T05:09:51;4.97;;;3.80;;
45328;SDS011;31063;48.356;10.896;2022-09-12T05:12:17;5.10;;;3.78;;
45328;SDS011;31063;48.356;10.896;2022-09-12T05:14:42;4.07;;;3.67;;
45328;SDS011;31063;48.356;10.896;2022-09-12T05:17:08;4.83;;;3.23;;
45328;SDS011;31063;48.356;10.896;2022-09-12T05:19:34;4.77;;;4.27;;
45328;SDS011;31063;48.356;10.896;2022-09-12T05:21:59;5.57;;;4.20;;
45328;SDS011;31063;48.356;10.896;2022-09-12T05:24:25;7.23;;;4.27;;
45328;SDS011;31063;48.356;10.896;2022-09-12T05:26:51;5.23;;;4.40;;
45328;SDS011;31063;48.356;10.896;2022-09-12T05:29:17;5.53;;;4.78;;
45328;SDS011;31063;48.356;10.896;2022-09-12T05:31:43;5.50;;;4.97;;
45328;SDS011;31063;48.356;10.896;2022-09-12T05:34:08;6.80;;;4.07;;
45328;SDS011;31063;48.356;10.896;2022-09-12T05:36:34;7.00;;;4.77;;
45328;SDS011;31063;48.356;10.896;2022-09-12T05:39:03;8.73;;;4.47;;
45328;SDS011;31063;48.356;10.896;2022-09-12T05:41:30;6.25;;;4.50;;
45328;SDS011;31063;48.356;10.896;2022-09-12T05:43:58;8.00;;;4.65;;
45328;SDS011;31063;48.356;10.896;2022-09-12T05:46:26;6.30;;;4.80;;
45328;SDS011;31063;48.356;10.896;2022-09-12T05:48:53;6.05;;;4.40;;
45328;SDS011;31063;48.356;10.896;2022-09-12T05:51:23;8.20;;;4.13;;
45328;SDS011;31063;48.356;10.896;2022-09-12T05:53:52;10.40;;;4.68;;
45328;SDS011;31063;48.356;10.896;2022-09-12T05:56:21;5.93;;;4.05;;
45328;SDS011;31063;48.356;10.896;2022-09-12T05:58:53;5.15;;;4.57;;
45328;SDS011;31063;48.356;10.896;2022-09-12T06:01:23;9.07;;;4.10;;
45328;SDS011;31063;48.356;10.896;2022-09-12T06:06:18;5.38;;;4.32;;
45328;SDS011;31063;48.356;10.896;2022-09-12T06:08:46;5.60;;;4.10;;
45328;SDS011;31063;48.356;10.896;2022-09-12T06:11:14;6.00;;;4.20;;
45328;SDS011;31063;48.356;10.896;2022-09-12T06:13:44;5.35;;;4.22;;
45328;SDS011;31063;48.356;10.896;2022-09-12T06:16:14;5.82;;;3.97;;
45328;SDS011;31063;48.356;10.896;2022-09-12T06:18:48;4.68;;;3.92;;
45328;SDS011;31063;48.356;10.896;2022-09-12T06:21:16;4.55;;;4.10;;
45328;SDS011;31063;48.356;10.896;2022-09-12T06:23:42;6.43;;;4.38;;
45328;SDS011;31063;48.356;10.896;2022-09-12T06:26:10;11.35;;;4.68;;
45328;SDS011;31063;48.356;10.896;2022-09-12T06:28:37;7.05;;;5.05;;
45328;SDS011;31063;48.356;10.896;2022-09-12T06:31:10;5.63;;;4.28;;
45328;SDS011;31063;48.356;10.896;2022-09-12T06:33:38;5.00;;;4.50;;
45328;SDS011;31063;48.356;10.896;2022-09-12T06:36:06;6.88;;;4.32;;
45328;SDS011;31063;48.356;10.896;2022-09-12T06:38:34;5.65;;;4.22;;
45328;SDS011;31063;48.356;10.896;2022-09-12T06:40:59;6.93;;;4.80;;
45328;SDS011;31063;48.356;10.896;2022-09-12T06:43:28;5.85;;;4.18;;
45328;SDS011;31063;48.356;10.896;2022-09-12T06:45:55;8.00;;;4.15;;
45328;SDS011;31063;48.356;10.896;2022-09-12T06:48:20;6.40;;;4.22;;
45328;SDS011;31063;48.356;10.896;2022-09-12T06:50:56;8.17;;;4.60;;
45328;SDS011;31063;48.356;10.896;2022-09-12T06:53:23;6.03;;;3.70;;
45328;SDS011;31063;48.356;10.896;2022-09-12T06:55:54;5.07;;;4.20;;
45328;SDS011;31063;48.356;10.896;2022-09-12T06:58:24;6.60;;;3.90;;
45328;SDS011;31063;48.356;10.896;2022-09-12T07:03:16;5.00;;;3.85;;
45328;SDS011;31063;48.356;10.896;2022-09-12T07:05:43;4.85;;;3.70;;
45328;SDS011;31063;48.356;10.896;2022-09-12T07:08:09;5.25;;;4.00;;
45328;SDS011;31063;48.356;10.896;2022-09-12T07:10:35;5.27;;;3.93;;
45328;SDS011;31063;48.356;10.896;2022-09-12T07:13:00;7.77;;;4.03;;
45328;SDS011;31063;48.356;10.896;2022-09-12T07:15:26;9.73;;;4.03;;
45328;SDS011;31063;48.356;10.896;2022-09-12T07:17:52;7.43;;;3.00;;
45328;SDS011;31063;48.356;10.896;2022-09-12T07:20:18;3.58;;;3.20;;
45328;SDS011;31063;48.356;10.896;2022-09-12T07:22:43;4.70;;;3.27;;
45328;SDS011;31063;48.356;10.896;2022-09-12T07:25:09;7.30;;;2.80;;
45328;SDS011;31063;48.356;10.896;2022-09-12T07:27:35;4.80;;;2.93;;
45328;SDS011;31063;48.356;10.896;2022-09-12T07:32:28;5.25;;;3.17;;
45328;SDS011;31063;48.356;10.896;2022-09-12T07:34:53;6.07;;;3.23;;
45328;SDS011;31063;48.356;10.896;2022-09-12T07:37:19;3.87;;;3.50;;
45328;SDS011;31063;48.356;10.896;2022-09-12T07:39:45;4.20;;;2.97;;
45328;SDS011;31063;48.356;10.896;2022-09-12T07:42:10;3.55;;;3.00;;
45328;SDS011;31063;48.356;10.896;2022-09-12T07:44:37;4.05;;;2.92;;
45328;SDS011;31063;48.356;10.896;2022-09-12T07:47:02;5.47;;;2.83;;
45328;SDS011;31063;48.356;10.896;2022-09-12T07:49:28;6.70;;;2.40;;
45328;SDS011;31063;48.356;10.896;2022-09-12T07:51:54;4.40;;;2.50;;
45328;SDS011;31063;48.356;10.896;2022-09-12T07:54:20;2.45;;;1.98;;
45328;SDS011;31063;48.356;10.896;2022-09-12T07:56:46;5.32;;;2.88;;
45328;SDS011;31063;48.356;10.896;2022-09-12T07:59:12;5.50;;;2.30;;
45328;SDS011;31063;48.356;10.896;2022-09-12T08:01:37;7.53;;;2.30;;
45328;SDS011;31063;48.356;10.896;2022-09-12T08:04:04;4.38;;;2.28;;
45328;SDS011;31063;48.356;10.896;2022-09-12T08:06:29;4.53;;;2.20;;
45328;SDS011;31063;48.356;10.896;2022-09-12T08:08:56;4.25;;;2.20;;
45328;SDS011;31063;48.356;10.896;2022-09-12T08:11:23;6.05;;;2.20;;
45328;SDS011;31063;48.356;10.896;2022-09-12T08:13:50;4.75;;;2.47;;
45328;SDS011;31063;48.356;10.896;2022-09-12T08:16:18;4.00;;;2.38;;
45328;SDS011;31063;48.356;10.896;2022-09-12T08:18:45;6.93;;;2.38;;
45328;SDS011;31063;48.356;10.896;2022-09-12T08:21:33;5.95;;;2.58;;
45328;SDS011;31063;48.356;10.896;2022-09-12T08:24:02;2.25;;;1.67;;
45328;SDS011;31063;48.356;10.896;2022-09-12T08:26:30;2.67;;;1.90;;
45328;SDS011;31063;48.356;10.896;2022-09-12T08:28:57;3.28;;;1.80;;
45328;SDS011;31063;48.356;10.896;2022-09-12T08:31:23;2.47;;;1.48;;
45328;SDS011;31063;48.356;10.896;2022-09-12T08:33:50;1.92;;;1.73;;
45328;SDS011;31063;48.356;10.896;2022-09-12T08:36:20;5.22;;;1.88;;
45328;SDS011;31063;48.356;10.896;2022-09-12T08:38:48;2.47;;;1.70;;
45328;SDS011;31063;48.356;10.896;2022-09-12T08:41:31;3.95;;;1.60;;
45328;SDS011;31063;48.356;10.896;2022-09-12T08:44:04;2.53;;;1.63;;
45328;SDS011;31063;48.356;10.896;2022-09-12T08:49:33;2.28;;;1.90;;
45328;SDS011;31063;48.356;10.896;2022-09-12T08:52:23;6.53;;;1.95;;
45328;SDS011;31063;48.356;10.896;2022-09-12T08:54:50;2.10;;;1.85;;
45328;SDS011;31063;48.356;10.896;2022-09-12T08:57:16;5.70;;;2.78;;
45328;SDS011;31063;48.356;10.896;2022-09-12T08:59:43;3.00;;;2.55;;
45328;SDS011;31063;48.356;10.896;2022-09-12T09:13:19;5.95;;;3.25;;
45328;SDS011;31063;48.356;10.896;2022-09-12T09:16:28;3.53;;;3.05;;
45328;SDS011;31063;48.356;10.896;2022-09-12T09:19:00;4.15;;;3.20;;
45328;SDS011;31063;48.356;10.896;2022-09-12T09:24:05;3.58;;;3.28;;
45328;SDS011;31063;48.356;10.896;2022-09-12T09:26:48;6.68;;;3.42;;
45328;SDS011;31063;48.356;10.896;2022-09-12T09:29:18;4.70;;;3.60;;
45328;SDS011;31063;48.356;10.896;2022-09-12T09:31:51;5.03;;;3.40;;
45328;SDS011;31063;48.356;10.896;2022-09-12T09:34:22;3.50;;;3.20;;
45328;SDS011;31063;48.356;10.896;2022-09-12T09:40:20;4.45;;;2.83;;
45328;SDS011;31063;48.356;10.896;2022-09-12T09:45:34;3.55;;;3.00;;
45328;SDS011;31063;48.356;10.896;2022-09-12T09:50:49;2.72;;;2.53;;
45328;SDS011;31063;48.356;10.896;2022-09-12T09:56:05;2.72;;;2.50;;
45328;SDS011;31063;48.356;10.896;2022-09-12T09:58:50;2.55;;;2.20;;
45328;SDS011;31063;48.356;10.896;2022-09-12T10:01:16;2.73;;;2.30;;
45328;SDS011;31063;48.356;10.896;2022-09-12T10:03:52;3.95;;;2.55;;
45328;SDS011;31063;48.356;10.896;2022-09-12T10:08:45;2.53;;;2.33;;
45328;SDS011;31063;48.356;10.896;2022-09-12T10:11:19;2.97;;;2.25;;
45328;SDS011;31063;48.356;10.896;2022-09-12T10:16:27;3.75;;;2.47;;
45328;SDS011;31063;48.356;10.896;2022-09-12T10:18:58;4.03;;;2.10;;
45328;SDS011;31063;48.356;10.896;2022-09-12T10:24:34;3.63;;;1.83;;
45328;SDS011;31063;48.356;10.896;2022-09-12T10:29:52;3.45;;;2.20;;
45328;SDS011;31063;48.356;10.896;2022-09-12T10:32:39;4.93;;;3.10;;
45328;SDS011;31063;48.356;10.896;2022-09-12T10:35:15;4.70;;;2.88;;
45328;SDS011;31063;48.356;10.896;2022-09-12T10:37:41;6.40;;;3.25;;
45328;SDS011;31063;48.356;10.896;2022-09-12T10:40:29;11.63;;;3.90;;
45328;SDS011;31063;48.356;10.896;2022-09-12T10:43:01;3.70;;;2.30;;
45328;SDS011;31063;48.356;10.896;2022-09-12T10:45:39;4.18;;;2.20;;
45328;SDS011;31063;48.356;10.896;2022-09-12T10:48:26;6.65;;;2.90;;
45328;SDS011;31063;48.356;10.896;2022-09-12T10:50:56;2.72;;;2.10;;
45328;SDS011;31063;48.356;10.896;2022-09-12T10:53:23;3.83;;;1.92;;
45328;SDS011;31063;48.356;10.896;2022-09-12T11:00:52;2.85;;;1.70;;
45328;SDS011;31063;48.356;10.896;2022-09-12T11:07:06;2.20;;;1.83;;
45328;SDS011;31063;48.356;10.896;2022-09-12T11:12:31;1.65;;;1.55;;
45328;SDS011;31063;48.356;10.896;2022-09-12T11:17:54;2.33;;;1.70;;
45328;SDS011;31063;48.356;10.896;2022-09-12T11:25:57;1.52;;;1.40;;
45328;SDS011;31063;48.356;10.896;2022-09-12T11:29:15;1.70;;;1.60;;
45328;SDS011;31063;48.356;10.896;2022-09-12T11:34:37;2.85;;;1.75;;
45328;SDS011;31063;48.356;10.896;2022-09-12T11:40:04;5.15;;;1.92;;
45328;SDS011;31063;48.356;10.896;2022-09-12T11:42:44;2.28;;;1.73;;
45328;SDS011;31063;48.356;10.896;2022-09-12T11:45:12;4.10;;;1.70;;
45328;SDS011;31063;48.356;10.896;2022-09-12T11:47:44;1.95;;;1.70;;
45328;SDS011;31063;48.356;10.896;2022-09-12T11:50:28;1.98;;;1.60;;
45328;SDS011;31063;48.356;10.896;2022-09-12T11:52:56;2.03;;;1.83;;
45328;SDS011;31063;48.356;10.896;2022-09-12T11:55:31;2.92;;;1.48;;
45328;SDS011;31063;48.356;10.896;2022-09-12T11:58:08;1.60;;;1.50;;
45328;SDS011;31063;48.356;10.896;2022-09-12T12:00:37;4.15;;;1.70;;
45328;SDS011;31063;48.356;10.896;2022-09-12T12:06:23;1.80;;;1.70;;
45328;SDS011;31063;48.356;10.896;2022-09-12T12:09:23;2.33;;;2.13;;
45328;SDS011;31063;48.356;10.896;2022-09-12T12:11:50;4.50;;;2.10;;
45328;SDS011;31063;48.356;10.896;2022-09-12T12:14:23;2.90;;;1.80;;
45328;SDS011;31063;48.356;10.896;2022-09-12T12:16:54;3.75;;;1.88;;
45328;SDS011;31063;48.356;10.896;2022-09-12T12:22:05;2.35;;;1.88;;
45328;SDS011;31063;48.356;10.896;2022-09-12T12:24:31;2.17;;;1.83;;
45328;SDS011;31063;48.356;10.896;2022-09-12T12:34:33;1.90;;;1.80;;
45328;SDS011;31063;48.356;10.896;2022-09-12T12:45:46;2.35;;;1.80;;
45328;SDS011;31063;48.356;10.896;2022-09-12T12:47:46;3.47;;;1.83;;
45328;SDS011;31063;48.356;10.896;2022-09-12T12:55:22;1.92;;;1.73;;
45328;SDS011;31063;48.356;10.896;2022-09-12T12:57:50;1.77;;;1.67;;
45328;SDS011;31063;48.356;10.896;2022-09-12T13:05:29;1.67;;;1.40;;
45328;SDS011;31063;48.356;10.896;2022-09-12T13:10:48;1.83;;;1.65;;
45328;SDS011;31063;48.356;10.896;2022-09-12T13:13:38;2.95;;;1.70;;
45328;SDS011;31063;48.356;10.896;2022-09-12T13:16:08;1.83;;;1.58;;
45328;SDS011;31063;48.356;10.896;2022-09-12T13:18:43;1.30;;;1.20;;
45328;SDS011;31063;48.356;10.896;2022-09-12T13:21:15;2.45;;;1.35;;
45328;SDS011;31063;48.356;10.896;2022-09-12T13:23:42;2.90;;;1.67;;
45328;SDS011;31063;48.356;10.896;2022-09-12T13:26:13;1.67;;;1.52;;
45328;SDS011;31063;48.356;10.896;2022-09-12T13:28:46;1.75;;;1.48;;
45328;SDS011;31063;48.356;10.896;2022-09-12T13:33:47;1.58;;;1.40;;
45328;SDS011;31063;48.356;10.896;2022-09-12T13:39:14;1.60;;;1.40;;
45328;SDS011;31063;48.356;10.896;2022-09-12T13:44:43;1.30;;;1.25;;
45328;SDS011;31063;48.356;10.896;2022-09-12T13:47:12;1.35;;;1.20;;
45328;SDS011;31063;48.356;10.896;2022-09-12T13:49:47;2.25;;;1.40;;
45328;SDS011;31063;48.356;10.896;2022-09-12T13:52:18;2.05;;;1.20;;
45328;SDS011;31063;48.356;10.896;2022-09-12T13:54:51;1.87;;;1.40;;
45328;SDS011;31063;48.356;10.896;2022-09-12T14:02:24;1.40;;;1.15;;
45328;SDS011;31063;48.356;10.896;2022-09-12T14:04:53;3.20;;;1.50;;
45328;SDS011;31063;48.356;10.896;2022-09-12T14:07:33;1.30;;;1.25;;
45328;SDS011;31063;48.356;10.896;2022-09-12T14:10:16;1.40;;;1.30;;
45328;SDS011;31063;48.356;10.896;2022-09-12T14:12:47;2.72;;;1.48;;
45328;SDS011;31063;48.356;10.896;2022-09-12T14:15:18;1.95;;;1.60;;
45328;SDS011;31063;48.356;10.896;2022-09-12T14:17:52;1.83;;;1.52;;
45328;SDS011;31063;48.356;10.896;2022-09-12T14:20:21;1.42;;;1.20;;
45328;SDS011;31063;48.356;10.896;2022-09-12T14:22:49;1.55;;;1.45;;
45328;SDS011;31063;48.356;10.896;2022-09-12T14:25:22;1.52;;;1.40;;
45328;SDS011;31063;48.356;10.896;2022-09-12T14:27:50;1.52;;;1.42;;
45328;SDS011;31063;48.356;10.896;2022-09-12T14:32:43;2.93;;;1.40;;
45328;SDS011;31063;48.356;10.896;2022-09-12T14:35:41;3.92;;;1.30;;
45328;SDS011;31063;48.356;10.896;2022-09-12T14:40:44;1.48;;;1.20;;
45328;SDS011;31063;48.356;10.896;2022-09-12T14:43:28;1.35;;;1.20;;
45328;SDS011;31063;48.356;10.896;2022-09-12T14:45:56;1.83;;;1.35;;
45328;SDS011;31063;48.356;10.896;2022-09-12T14:48:28;1.25;;;1.10;;
45328;SDS011;31063;48.356;10.896;2022-09-12T14:50:56;1.40;;;1.30;;
45328;SDS011;31063;48.356;10.896;2022-09-12T14:58:30;2.08;;;1.35;;
45328;SDS011;31063;48.356;10.896;2022-09-12T15:05:58;1.77;;;1.30;;
45328;SDS011;31063;48.356;10.896;2022-09-12T15:08:24;1.23;;;1.00;;
45328;SDS011;31063;48.356;10.896;2022-09-12T15:10:51;1.67;;;1.23;;
45328;SDS011;31063;48.356;10.896;2022-09-12T15:13:17;1.48;;;1.25;;
45328;SDS011;31063;48.356;10.896;2022-09-12T15:15:46;2.22;;;1.17;;
45328;SDS011;31063;48.356;10.896;2022-09-12T15:18:17;1.52;;;1.20;;
45328;SDS011;31063;48.356;10.896;2022-09-12T15:20:44;1.02;;;1.02;;
45328;SDS011;31063;48.356;10.896;2022-09-12T15:23:13;1.15;;;1.05;;
45328;SDS011;31063;48.356;10.896;2022-09-12T15:25:43;1.13;;;1.00;;
45328;SDS011;31063;48.356;10.896;2022-09-12T15:28:14;2.10;;;1.10;;
45328;SDS011;31063;48.356;10.896;2022-09-12T15:30:44;1.10;;;1.10;;
45328;SDS011;31063;48.356;10.896;2022-09-12T15:33:11;1.48;;;1.38;;
45328;SDS011;31063;48.356;10.896;2022-09-12T15:35:36;1.35;;;1.25;;
45328;SDS011;31063;48.356;10.896;2022-09-12T15:38:03;1.95;;;1.13;;
45328;SDS011;31063;48.356;10.896;2022-09-12T15:40:28;2.20;;;1.50;;
45328;SDS011;31063;48.356;10.896;2022-09-12T15:42:54;1.15;;;1.02;;
45328;SDS011;31063;48.356;10.896;2022-09-12T15:45:26;1.13;;;1.02;;
45328;SDS011;31063;48.356;10.896;2022-09-12T15:47:54;1.48;;;1.20;;
45328;SDS011;31063;48.356;10.896;2022-09-12T15:50:20;1.33;;;1.20;;
45328;SDS011;31063;48.356;10.896;2022-09-12T15:52:46;1.20;;;1.05;;
45328;SDS011;31063;48.356;10.896;2022-09-12T15:58:07;1.52;;;1.42;;
45328;SDS011;31063;48.356;10.896;2022-09-12T16:00:33;1.13;;;1.10;;
45328;SDS011;31063;48.356;10.896;2022-09-12T16:02:58;1.77;;;1.17;;
45328;SDS011;31063;48.356;10.896;2022-09-12T16:05:25;1.55;;;1.27;;
45328;SDS011;31063;48.356;10.896;2022-09-12T16:07:52;1.35;;;1.25;;
45328;SDS011;31063;48.356;10.896;2022-09-12T16:10:19;2.20;;;1.38;;
45328;SDS011;31063;48.356;10.896;2022-09-12T16:12:47;1.42;;;1.33;;
45328;SDS011;31063;48.356;10.896;2022-09-12T16:15:14;1.42;;;1.33;;
45328;SDS011;31063;48.356;10.896;2022-09-12T16:17:42;2.63;;;1.23;;
45328;SDS011;31063;48.356;10.896;2022-09-12T16:20:08;1.17;;;1.08;;
45328;SDS011;31063;48.356;10.896;2022-09-12T16:22:34;1.60;;;1.00;;
45328;SDS011;31063;48.356;10.896;2022-09-12T16:25:00;1.63;;;1.30;;
45328;SDS011;31063;48.356;10.896;2022-09-12T16:27:26;1.60;;;1.10;;
45328;SDS011;31063;48.356;10.896;2022-09-12T16:29:51;1.17;;;1.08;;
45328;SDS011;31063;48.356;10.896;2022-09-12T16:32:17;1.33;;;1.23;;
45328;SDS011;31063;48.356;10.896;2022-09-12T16:34:42;1.00;;;1.00;;
45328;SDS011;31063;48.356;10.896;2022-09-12T16:37:08;2.15;;;1.10;;
45328;SDS011;31063;48.356;10.896;2022-09-12T16:39:34;1.30;;;1.08;;
45328;SDS011;31063;48.356;10.896;2022-09-12T16:42:00;1.00;;;1.00;;
45328;SDS011;31063;48.356;10.896;2022-09-12T16:44:26;1.50;;;1.23;;
45328;SDS011;31063;48.356;10.896;2022-09-12T16:46:51;1.58;;;1.20;;
45328;SDS011;31063;48.356;10.896;2022-09-12T16:49:17;4.68;;;1.40;;
45328;SDS011;31063;48.356;10.896;2022-09-12T16:51:43;1.08;;;1.00;;
45328;SDS011;31063;48.356;10.896;2022-09-12T16:54:11;1.02;;;0.90;;
45328;SDS011;31063;48.356;10.896;2022-09-12T16:56:38;1.38;;;1.00;;
45328;SDS011;31063;48.356;10.896;2022-09-12T17:01:30;2.47;;;1.58;;
45328;SDS011;31063;48.356;10.896;2022-09-12T17:03:57;2.63;;;1.48;;
45328;SDS011;31063;48.356;10.896;2022-09-12T17:06:23;1.38;;;1.25;;
45328;SDS011;31063;48.356;10.896;2022-09-12T17:08:51;2.20;;;1.25;;
45328;SDS011;31063;48.356;10.896;2022-09-12T17:13:47;1.30;;;1.20;;
45328;SDS011;31063;48.356;10.896;2022-09-12T17:16:14;1.27;;;1.15;;
45328;SDS011;31063;48.356;10.896;2022-09-12T17:18:40;4.35;;;1.63;;
45328;SDS011;31063;48.356;10.896;2022-09-12T17:21:06;2.25;;;1.80;;
45328;SDS011;31063;48.356;10.896;2022-09-12T17:23:32;2.10;;;1.48;;
45328;SDS011;31063;48.356;10.896;2022-09-12T17:25:58;1.52;;;1.42;;
45328;SDS011;31063;48.356;10.896;2022-09-12T17:28:24;2.60;;;2.05;;
45328;SDS011;31063;48.356;10.896;2022-09-12T17:30:58;3.83;;;1.65;;
45328;SDS011;31063;48.356;10.896;2022-09-12T17:33:28;2.13;;;1.92;;
45328;SDS011;31063;48.356;10.896;2022-09-12T17:35:54;1.95;;;1.67;;
45328;SDS011;31063;48.356;10.896;2022-09-12T17:38:24;4.32;;;1.70;;
45328;SDS011;31063;48.356;10.896;2022-09-12T17:40:50;3.05;;;1.80;;
45328;SDS011;31063;48.356;10.896;2022-09-12T17:43:15;2.28;;;2.00;;
45328;SDS011;31063;48.356;10.896;2022-09-12T17:45:41;2.33;;;1.88;;
45328;SDS011;31063;48.356;10.896;2022-09-12T17:48:07;2.17;;;1.63;;
45328;SDS011;31063;48.356;10.896;2022-09-12T17:50:38;3.72;;;1.77;;
45328;SDS011;31063;48.356;10.896;2022-09-12T17:53:05;2.63;;;1.70;;
45328;SDS011;31063;48.356;10.896;2022-09-12T17:55:34;2.35;;;1.88;;
45328;SDS011;31063;48.356;10.896;2022-09-12T17:58:00;5.60;;;2.35;;
45328;SDS011;31063;48.356;10.896;2022-09-12T18:00:27;3.08;;;1.80;;
45328;SDS011;31063;48.356;10.896;2022-09-12T18:03:13;5.97;;;2.33;;
45328;SDS011;31063;48.356;10.896;2022-09-12T18:05:45;5.43;;;2.40;;